createdAt,value
2018-06-28T00:01:29.889Z,71.60
2018-06-28T00:03:57.932Z,71.16
2018-06-28T00:06:25.960Z,71.58
2018-06-28T00:08:54.447Z,70.99
2018-06-28T00:11:22.545Z,70.55
2018-06-28T00:13:50.575Z,71.29
2018-06-28T00:16:18.615Z,71.01
2018-06-28T00:18:46.661Z,71.08
2018-06-28T00:21:14.767Z,70.53
2018-06-28T00:23:42.828Z,70.67
2018-06-28T00:26:10.976Z,70.23
2018-06-28T00:28:39.071Z,70.94
2018-06-28T00:31:07.120Z,71.01
2018-06-28T00:33:35.424Z,70.56
2018-06-28T00:36:03.453Z,70.94
2018-06-28T00:38:31.492Z,71.37
2018-06-28T00:40:59.529Z,70.94
2018-06-28T00:43:27.624Z,72.11
2018-06-28T00:45:55.678Z,71.87
2018-06-28T00:48:23.764Z,72.21
2018-06-28T00:50:51.861Z,72.44
2018-06-28T00:53:19.921Z,72.18
2018-06-28T00:55:48.004Z,72.16
2018-06-28T00:58:16.059Z,71.73
2018-06-28T01:00:44.135Z,72.13
2018-06-28T01:03:12.223Z,72.10
2018-06-28T01:05:40.273Z,71.92
2018-06-28T01:08:08.333Z,71.79
2018-06-28T01:10:36.436Z,71.82
2018-06-28T01:13:04.815Z,72.15
2018-06-28T01:15:32.871Z,73.14
2018-06-28T01:18:00.976Z,72.42
2018-06-28T01:20:29.019Z,73.11
2018-06-28T01:22:57.067Z,71.96
2018-06-28T01:25:25.128Z,72.34
2018-06-28T01:27:53.155Z,72.84
2018-06-28T01:30:21.203Z,72.60
2018-06-28T01:32:49.274Z,72.95
2018-06-28T01:35:17.315Z,72.06
2018-06-28T01:37:45.352Z,72.08
2018-06-28T01:40:13.408Z,71.63
2018-06-28T01:43:48.104Z,71.57
2018-06-28T01:46:17.326Z,72.06
2018-06-28T01:48:45.446Z,71.72
2018-06-28T01:51:13.507Z,71.91
2018-06-28T01:53:41.598Z,72.06
2018-06-28T01:56:09.616Z,72.12
2018-06-28T01:58:37.656Z,72.33
2018-06-28T02:01:05.760Z,72.33
2018-06-28T02:03:33.826Z,72.17
2018-06-28T02:06:01.849Z,72.88
2018-06-28T02:08:30.195Z,72.49
2018-06-28T02:10:58.232Z,73.23
2018-06-28T02:13:26.275Z,72.86
2018-06-28T02:15:54.320Z,73.21
2018-06-28T02:18:22.369Z,72.45
2018-06-28T02:20:50.781Z,73.41
2018-06-28T02:23:18.780Z,73.31
2018-06-28T02:25:46.816Z,72.48
2018-06-28T02:28:15.096Z,72.20
2018-06-28T02:30:43.170Z,72.66
2018-06-28T02:33:11.248Z,72.85
2018-06-28T02:35:39.383Z,73.50
2018-06-28T02:38:07.424Z,73.50
2018-06-28T02:40:35.526Z,74.35
2018-06-28T02:43:03.601Z,74.37
2018-06-28T02:45:31.647Z,73.57
2018-06-28T02:47:59.728Z,74.25
2018-06-28T02:50:27.764Z,74.90
2018-06-28T02:52:55.812Z,74.82
2018-06-28T02:55:23.840Z,74.66
2018-06-28T02:57:51.873Z,74.79
2018-06-28T03:00:19.924Z,74.71
2018-06-28T03:02:47.992Z,74.21
2018-06-28T03:05:16.099Z,74.48
2018-06-28T03:07:44.136Z,74.85
2018-06-28T03:10:12.168Z,75.29
2018-06-28T03:12:40.232Z,75.00
2018-06-28T03:15:08.339Z,74.60
2018-06-28T03:17:36.388Z,74.59
2018-06-28T03:20:04.475Z,74.54
2018-06-28T03:22:32.823Z,74.46
2018-06-28T03:25:00.862Z,75.20
2018-06-28T03:27:28.909Z,75.21
2018-06-28T03:29:57.230Z,74.98
2018-06-28T03:32:25.259Z,74.92
2018-06-28T03:34:53.292Z,74.87
2018-06-28T03:37:21.750Z,74.84
2018-06-28T03:39:49.776Z,74.50
2018-06-28T03:42:17.816Z,74.65
2018-06-28T03:44:45.888Z,74.25
2018-06-28T03:47:14.011Z,74.98
2018-06-28T03:49:42.102Z,74.54
2018-06-28T03:52:10.253Z,75.31
2018-06-28T03:54:38.328Z,75.53
2018-06-28T03:57:06.425Z,75.71
2018-06-28T03:59:34.502Z,75.66
2018-06-28T04:02:02.561Z,75.65
2018-06-28T04:04:30.610Z,75.55
2018-06-28T04:06:58.661Z,75.19
2018-06-28T04:09:26.734Z,74.38
2018-06-28T04:11:54.780Z,74.67
2018-06-28T04:14:22.815Z,74.09
2018-06-28T04:16:50.864Z,73.64
2018-06-28T04:19:18.887Z,73.58
2018-06-28T04:21:46.989Z,73.33
2018-06-28T04:24:15.137Z,73.09
2018-06-28T04:26:43.281Z,71.84
2018-06-28T04:29:11.384Z,69.08
2018-06-28T04:31:39.833Z,66.48
2018-06-28T04:34:07.997Z,64.33
2018-06-28T04:36:36.070Z,60.51
2018-06-28T04:39:06.499Z,59.36
2018-06-28T04:41:34.535Z,56.52
2018-06-28T04:44:02.585Z,52.85
2018-06-28T04:46:30.664Z,53.06
2018-06-28T04:48:58.768Z,51.99
2018-06-28T04:51:26.863Z,51.65
2018-06-28T04:53:54.936Z,45.68
2018-06-28T04:56:22.967Z,47.89
2018-06-28T04:58:51.045Z,45.11
2018-06-28T05:01:19.139Z,42.56
2018-06-28T05:03:47.145Z,42.41
2018-06-28T05:06:15.187Z,43.38
2018-06-28T05:08:43.233Z,40.78
2018-06-28T05:11:11.305Z,43.86
2018-06-28T05:13:39.369Z,42.85
2018-06-28T05:16:07.421Z,42.84
2018-06-28T05:18:35.468Z,43.04
2018-06-28T05:21:03.497Z,42.02
2018-06-28T05:23:31.560Z,42.93
2018-06-28T05:25:59.631Z,41.73
2018-06-28T05:28:27.696Z,40.30
2018-06-28T05:30:55.755Z,37.90
2018-06-28T05:33:23.847Z,39.36
2018-06-28T05:35:51.888Z,39.51
2018-06-28T05:38:19.944Z,37.82
2018-06-28T05:40:48.127Z,37.42
2018-06-28T05:43:16.205Z,37.90
2018-06-28T05:45:44.631Z,36.69
2018-06-28T05:48:12.672Z,34.63
2018-06-28T05:50:40.849Z,35.39
2018-06-28T05:53:09.272Z,35.21
2018-06-28T05:55:37.490Z,33.52
2018-06-28T05:58:05.568Z,32.56
2018-06-28T06:00:33.655Z,33.54
2018-06-28T06:03:01.699Z,32.93
2018-06-28T06:05:29.752Z,32.35
2018-06-28T06:07:57.832Z,30.81
2018-06-28T06:10:26.055Z,32.27
2018-06-28T06:12:54.116Z,31.41
2018-06-28T06:15:22.168Z,30.62
2018-06-28T06:17:50.528Z,32.30
2018-06-28T06:20:18.658Z,30.91
2018-06-28T06:22:46.799Z,31.10
2018-06-28T06:25:15.056Z,31.07
2018-06-28T06:27:43.235Z,29.70
2018-06-28T06:30:11.595Z,29.13
2018-06-28T06:32:39.847Z,28.90
2018-06-28T06:35:08.086Z,30.44
2018-06-28T06:37:36.228Z,30.71
2018-06-28T06:40:04.404Z,30.33
2018-06-28T06:42:32.460Z,29.33
2018-06-28T06:45:00.571Z,30.25
2018-06-28T06:47:28.698Z,29.03
2018-06-28T06:49:56.780Z,27.98
2018-06-28T06:52:24.804Z,28.80
2018-06-28T06:54:52.844Z,29.89
2018-06-28T06:57:20.920Z,28.45
2018-06-28T06:59:49.040Z,29.74
2018-06-28T07:02:17.119Z,28.67
2018-06-28T07:04:45.213Z,28.07
2018-06-28T07:07:13.309Z,27.19
2018-06-28T07:09:41.332Z,28.87
2018-06-28T07:12:09.398Z,28.19
2018-06-28T07:14:38.340Z,28.87
2018-06-28T07:17:06.401Z,28.07
2018-06-28T07:19:34.496Z,28.48
2018-06-28T07:22:02.555Z,28.62
2018-06-28T07:24:30.606Z,28.29
2018-06-28T07:26:58.632Z,29.01
2018-06-28T07:29:26.676Z,28.71
2018-06-28T07:31:54.862Z,28.85
2018-06-28T07:34:22.908Z,29.04
2018-06-28T07:36:51.014Z,30.53
2018-06-28T07:39:19.071Z,30.37
2018-06-28T07:41:47.245Z,30.65
2018-06-28T07:44:15.618Z,31.24
2018-06-28T07:46:43.727Z,30.92
2018-06-28T07:49:11.914Z,30.54
2018-06-28T07:51:40.078Z,30.17
2018-06-28T07:54:08.207Z,30.28
2018-06-28T07:56:36.348Z,30.57
2018-06-28T07:59:04.425Z,31.22
2018-06-28T08:01:32.504Z,31.17
2018-06-28T08:04:00.603Z,31.43
2018-06-28T08:06:28.637Z,31.83
2018-06-28T08:08:56.687Z,31.04
2018-06-28T08:11:24.716Z,30.63
2018-06-28T08:13:52.767Z,31.67
2018-06-28T08:16:20.798Z,32.35
2018-06-28T08:18:48.848Z,32.10
2018-06-28T08:21:16.935Z,31.86
2018-06-28T08:23:45.017Z,32.55
2018-06-28T08:26:13.123Z,32.90
2018-06-28T08:28:41.404Z,32.34
2018-06-28T08:31:09.432Z,32.90
2018-06-28T08:33:37.496Z,33.52
2018-06-28T08:36:05.587Z,33.79
2018-06-28T08:38:33.617Z,32.69
2018-06-28T08:41:01.668Z,32.86
2018-06-28T08:43:29.938Z,33.95
2018-06-28T08:45:58.237Z,35.06
2018-06-28T08:48:26.269Z,35.12
2018-06-28T08:50:54.316Z,34.95
2018-06-28T08:53:22.377Z,35.24
2018-06-28T08:55:51.492Z,36.46
2018-06-28T08:58:19.776Z,36.45
2018-06-28T09:00:47.708Z,36.25
2018-06-28T09:03:15.864Z,36.12
2018-06-28T09:05:44.055Z,36.05
2018-06-28T09:08:12.183Z,36.52
2018-06-28T09:10:40.412Z,36.19
2018-06-28T09:13:08.602Z,34.94
2018-06-28T09:15:36.883Z,34.78
2018-06-28T09:18:05.065Z,34.57
2018-06-28T09:20:33.115Z,35.06
2018-06-28T09:23:01.187Z,35.12
2018-06-28T09:25:29.226Z,34.70
2018-06-28T09:27:57.252Z,34.31
2018-06-28T09:30:25.311Z,33.56
2018-06-28T09:32:53.364Z,32.14
2018-06-28T09:35:21.427Z,33.19
2018-06-28T09:37:49.524Z,33.41
2018-06-28T09:40:17.628Z,33.47
2018-06-28T09:42:45.740Z,32.78
2018-06-28T09:45:13.772Z,32.42
2018-06-28T09:47:41.892Z,31.87
2018-06-28T09:50:09.935Z,31.26
2018-06-28T09:52:38.016Z,30.60
2018-06-28T09:55:06.597Z,31.04
2018-06-28T09:57:34.656Z,30.89
2018-06-28T10:00:02.711Z,31.18
2018-06-28T10:02:30.792Z,32.36
2018-06-28T10:04:59.135Z,31.42
2018-06-28T10:07:27.135Z,32.09
2018-06-28T10:09:55.166Z,32.44
2018-06-28T10:12:23.229Z,30.65
2018-06-28T10:14:51.346Z,31.71
2018-06-28T10:17:19.291Z,31.90
2018-06-28T10:19:47.362Z,32.65
2018-06-28T10:22:15.520Z,31.71
2018-06-28T10:24:43.648Z,32.43
2018-06-28T10:27:11.614Z,33.15
2018-06-28T10:29:39.652Z,34.50
2018-06-28T10:32:08.012Z,34.39
2018-06-28T10:34:36.083Z,34.94
2018-06-28T10:37:04.127Z,34.42
2018-06-28T10:39:32.287Z,34.81
2018-06-28T10:42:00.311Z,34.84
2018-06-28T10:44:28.380Z,35.50
2018-06-28T10:46:56.500Z,35.13
2018-06-28T10:49:24.552Z,36.22
2018-06-28T10:51:52.684Z,34.64
2018-06-28T10:54:20.716Z,33.49
2018-06-28T10:56:48.807Z,34.75
2018-06-28T10:59:16.915Z,35.62
2018-06-28T11:01:45.663Z,35.44
2018-06-28T11:04:13.772Z,34.86
2018-06-28T11:06:42.011Z,35.41
2018-06-28T11:09:11.074Z,35.63
2018-06-28T11:11:40.314Z,35.52
2018-06-28T11:14:08.548Z,35.14
2018-06-28T11:16:36.641Z,35.29
2018-06-28T11:19:04.880Z,34.88
2018-06-28T11:21:33.157Z,36.00
2018-06-28T11:24:01.199Z,36.30
2018-06-28T11:26:29.232Z,36.76
2018-06-28T11:28:57.299Z,35.98
2018-06-28T11:31:25.319Z,35.73
2018-06-28T11:33:53.339Z,34.89
2018-06-28T11:36:21.432Z,35.39
2018-06-28T11:38:49.964Z,35.54
2018-06-28T11:41:18.142Z,35.87
2018-06-28T11:43:46.348Z,35.73
2018-06-28T11:46:14.453Z,36.16
2018-06-28T11:48:42.599Z,36.27
2018-06-28T11:51:10.791Z,35.88
2018-06-28T11:53:38.910Z,35.79
2018-06-28T11:56:06.988Z,36.13
2018-06-28T11:58:35.283Z,35.84
2018-06-28T12:01:03.330Z,35.94
2018-06-28T12:03:31.357Z,36.18
2018-06-28T12:05:59.404Z,35.63
2018-06-28T12:08:27.595Z,35.20
2018-06-28T12:10:55.647Z,35.50
2018-06-28T12:13:23.761Z,35.58
2018-06-28T12:15:51.803Z,36.66
2018-06-28T12:18:19.914Z,35.50
2018-06-28T12:20:47.939Z,35.41
2018-06-28T12:23:15.992Z,35.41
2018-06-28T12:25:44.018Z,34.77
2018-06-28T12:28:12.056Z,34.66
2018-06-28T12:30:40.072Z,34.84
2018-06-28T12:33:08.093Z,33.92
2018-06-28T12:35:36.415Z,34.60
2018-06-28T12:38:04.511Z,34.44
2018-06-28T12:40:32.571Z,35.51
2018-06-28T12:43:00.643Z,34.93
2018-06-28T12:45:28.651Z,35.26
2018-06-28T12:48:05.851Z,35.80
2018-06-28T12:50:33.913Z,35.87
2018-06-28T12:53:02.960Z,34.54
2018-06-28T12:55:41.643Z,34.75
2018-06-28T12:58:09.845Z,34.60
2018-06-28T13:00:37.913Z,34.51
2018-06-28T13:03:05.887Z,34.58
2018-06-28T13:05:33.927Z,34.93
2018-06-28T13:08:01.956Z,34.58
2018-06-28T13:10:30.004Z,35.05
2018-06-28T13:12:58.035Z,34.46
2018-06-28T13:15:26.051Z,34.33
2018-06-28T13:17:54.293Z,34.74
2018-06-28T13:20:22.381Z,34.05
2018-06-28T13:22:50.382Z,33.56
2018-06-28T13:25:18.661Z,33.44
2018-06-28T13:27:46.720Z,33.71
2018-06-28T13:30:14.840Z,34.30
2018-06-28T13:32:42.980Z,34.37
2018-06-28T13:35:11.113Z,32.85
2018-06-28T13:37:39.304Z,33.45
2018-06-28T13:40:07.400Z,33.74
2018-06-28T13:42:35.471Z,33.28
2018-06-28T13:45:03.511Z,33.99
2018-06-28T13:47:31.559Z,34.76
2018-06-28T13:49:59.592Z,34.77
2018-06-28T13:52:27.606Z,33.79
2018-06-28T13:54:55.717Z,34.44
2018-06-28T13:57:23.803Z,33.76
2018-06-28T13:59:51.900Z,33.84
2018-06-28T14:02:19.983Z,33.86
2018-06-28T14:04:48.065Z,32.72
2018-06-28T14:07:16.108Z,32.71
2018-06-28T14:09:44.259Z,33.53
2018-06-28T14:12:12.418Z,32.10
2018-06-28T14:14:40.597Z,33.04
2018-06-28T14:17:08.732Z,33.17
2018-06-28T14:19:36.826Z,33.81
2018-06-28T14:22:04.915Z,32.35
2018-06-28T14:24:32.909Z,32.49
2018-06-28T14:27:01.939Z,32.77
2018-06-28T14:29:29.982Z,32.55
2018-06-28T14:31:58.050Z,33.62
2018-06-28T14:34:26.332Z,32.84
2018-06-28T14:36:54.390Z,33.19
2018-06-28T14:39:22.455Z,33.42
2018-06-28T14:41:50.656Z,33.12
2018-06-28T14:44:18.983Z,32.86
2018-06-28T14:46:47.339Z,32.66
2018-06-28T14:49:15.756Z,32.74
2018-06-28T14:51:43.895Z,32.32
2018-06-28T14:54:12.344Z,32.95
2018-06-28T14:56:40.716Z,33.13
2018-06-28T14:59:09.716Z,32.56
2018-06-28T15:01:37.832Z,32.86
2018-06-28T15:04:06.064Z,33.27
2018-06-28T15:06:34.076Z,32.64
2018-06-28T15:09:02.185Z,32.18
2018-06-28T15:11:30.223Z,31.82
2018-06-28T15:13:58.283Z,32.95
2018-06-28T15:16:26.341Z,32.70
2018-06-28T15:18:54.472Z,31.91
2018-06-28T15:21:22.556Z,33.01
2018-06-28T15:23:50.632Z,32.39
2018-06-28T15:26:18.770Z,32.60
2018-06-28T15:28:46.991Z,32.12
2018-06-28T15:31:17.939Z,32.59
2018-06-28T15:33:46.524Z,32.59
2018-06-28T15:36:15.083Z,31.84
2018-06-28T15:38:43.421Z,32.40
2018-06-28T15:41:11.792Z,32.49
2018-06-28T15:43:40.404Z,31.50
2018-06-28T15:46:09.155Z,31.85
2018-06-28T15:48:37.531Z,31.39
2018-06-28T15:51:05.588Z,31.91
2018-06-28T15:53:33.616Z,31.92
2018-06-28T15:56:01.684Z,31.70
2018-06-28T15:58:29.759Z,32.21
2018-06-28T16:00:57.827Z,32.42
2018-06-28T16:03:25.886Z,32.96
2018-06-28T16:05:53.939Z,32.43
2018-06-28T16:08:21.983Z,32.35
2018-06-28T16:10:50.196Z,32.05
2018-06-28T16:13:18.735Z,32.54
2018-06-28T16:15:47.043Z,32.80
2018-06-28T16:18:15.314Z,33.12
2018-06-28T16:20:43.863Z,33.46
2018-06-28T16:23:12.368Z,32.34
2018-06-28T16:25:40.566Z,32.46
2018-06-28T16:28:09.475Z,32.20
2018-06-28T16:30:37.574Z,32.71
2018-06-28T16:33:05.619Z,32.97
2018-06-28T16:35:33.640Z,33.31
2018-06-28T16:38:01.762Z,33.09
2018-06-28T16:40:29.791Z,32.70
2018-06-28T16:42:57.827Z,32.35
2018-06-28T16:45:25.939Z,32.59
2018-06-28T16:47:53.999Z,31.92
2018-06-28T16:50:22.044Z,32.78
2018-06-28T16:52:50.131Z,32.36
2018-06-28T16:55:18.424Z,32.39
2018-06-28T16:57:46.820Z,32.55
2018-06-28T17:00:14.995Z,32.56
2018-06-28T17:02:43.581Z,32.68
2018-06-28T17:05:12.292Z,32.88
2018-06-28T17:07:41.016Z,32.50
2018-06-28T17:10:09.479Z,32.52
2018-06-28T17:12:37.527Z,32.82
2018-06-28T17:15:05.892Z,33.05
2018-06-28T17:17:34.305Z,33.46
2018-06-28T17:20:02.407Z,33.00
2018-06-28T17:22:30.988Z,32.95
2018-06-28T17:24:59.043Z,33.64
2018-06-28T17:27:27.104Z,33.12
2018-06-28T17:29:55.181Z,33.50
2018-06-28T17:32:23.528Z,34.10
2018-06-28T17:34:51.796Z,33.53
2018-06-28T17:37:20.051Z,33.64
2018-06-28T17:39:48.388Z,33.59
2018-06-28T17:42:16.431Z,33.79
2018-06-28T17:44:44.640Z,33.83
2018-06-28T17:47:12.892Z,34.78
2018-06-28T17:49:41.097Z,33.94
2018-06-28T17:52:09.280Z,34.51
2018-06-28T17:54:37.396Z,34.63
2018-06-28T17:57:05.764Z,34.58
2018-06-28T17:59:34.028Z,34.12
2018-06-28T18:02:02.103Z,34.63
2018-06-28T18:04:30.283Z,34.51
2018-06-28T18:06:58.323Z,34.65
2018-06-28T18:09:26.738Z,34.60
2018-06-28T18:11:54.785Z,35.23
2018-06-28T18:14:22.825Z,34.93
2018-06-28T18:16:50.964Z,35.62
2018-06-28T18:19:19.215Z,35.40
2018-06-28T18:21:47.325Z,35.38
2018-06-28T18:24:15.372Z,35.60
2018-06-28T18:26:43.707Z,36.29
2018-06-28T18:29:11.751Z,36.31
2018-06-28T18:31:39.911Z,36.79
2018-06-28T18:34:07.970Z,37.15
2018-06-28T18:36:35.990Z,37.44
2018-06-28T18:39:06.448Z,37.64
2018-06-28T18:41:34.508Z,37.19
2018-06-28T18:44:02.560Z,38.08
2018-06-28T18:46:30.596Z,37.70
2018-06-28T18:48:58.863Z,38.00
2018-06-28T18:51:28.062Z,38.69
2018-06-28T18:53:56.129Z,38.80
2018-06-28T18:56:24.662Z,39.14
2018-06-28T18:58:53.037Z,39.05
2018-06-28T19:01:21.169Z,39.69
2018-06-28T19:03:49.261Z,39.34
2018-06-28T19:06:17.399Z,39.37
2018-06-28T19:08:45.803Z,39.62
2018-06-28T19:11:13.843Z,40.47
2018-06-28T19:13:47.215Z,40.48
2018-06-28T19:16:21.452Z,40.62
2018-06-28T19:18:50.131Z,40.71
2018-06-28T19:21:23.417Z,41.21
2018-06-28T19:23:52.339Z,41.89
2018-06-28T19:26:20.675Z,41.38
2018-06-28T19:28:49.853Z,42.03
2018-06-28T19:32:21.027Z,41.63
2018-06-28T19:34:49.060Z,41.83
2018-06-28T19:37:22.444Z,42.56
2018-06-28T19:39:55.964Z,42.79
2018-06-28T19:42:29.605Z,42.52
2018-06-28T19:44:58.067Z,42.78
2018-06-28T19:47:26.350Z,43.14
2018-06-28T19:50:58.963Z,43.44
2018-06-28T19:53:27.115Z,44.47
2018-06-28T19:55:55.536Z,44.52
2018-06-28T19:58:24.051Z,44.63
2018-06-28T20:00:58.880Z,45.36
2018-06-28T20:03:32.281Z,45.19
2018-06-28T20:06:00.343Z,45.13
2018-06-28T20:08:28.732Z,45.82
2018-06-28T20:10:57.032Z,46.14
2018-06-28T20:13:30.656Z,46.71
2018-06-28T20:16:04.311Z,47.76
2018-06-28T20:18:38.143Z,49.07
2018-06-28T20:21:07.267Z,49.41
2018-06-28T20:23:35.698Z,51.12
2018-06-28T20:26:09.177Z,51.27
2018-06-28T20:28:42.629Z,52.38
2018-06-28T20:31:16.262Z,52.48
2018-06-28T20:33:50.155Z,52.71
2018-06-28T20:36:18.181Z,52.69
2018-06-28T20:38:46.368Z,53.94
2018-06-28T20:41:14.688Z,54.23
2018-06-28T20:43:43.228Z,54.46
2018-06-28T20:46:11.663Z,53.11
2018-06-28T20:48:40.169Z,54.63
2018-06-28T20:51:08.463Z,55.40
2018-06-28T20:53:37.352Z,55.69
2018-06-28T20:56:05.836Z,55.64
2018-06-28T20:58:36.236Z,56.87
2018-06-28T21:01:04.522Z,56.27
2018-06-28T21:03:32.593Z,56.56
2018-06-28T21:06:00.645Z,57.13
2018-06-28T21:08:28.828Z,57.39
2018-06-28T21:10:56.928Z,57.81
2018-06-28T21:13:24.967Z,58.12
2018-06-28T21:15:53.016Z,57.77
2018-06-28T21:18:21.047Z,56.86
2018-06-28T21:20:49.096Z,58.18
2018-06-28T21:23:17.165Z,57.72
2018-06-28T21:25:45.179Z,57.57
2018-06-28T21:28:13.219Z,58.63
2018-06-28T21:30:41.252Z,58.76
2018-06-28T21:33:09.324Z,59.29
2018-06-28T21:35:37.361Z,58.61
2018-06-28T21:38:05.400Z,59.01
2018-06-28T21:40:33.486Z,59.67
2018-06-28T21:43:01.504Z,58.99
2018-06-28T21:45:29.531Z,59.58
2018-06-28T21:47:57.540Z,59.52
2018-06-28T21:50:25.586Z,59.16
2018-06-28T21:52:53.619Z,59.62
2018-06-28T21:55:21.834Z,59.83
2018-06-28T21:57:49.765Z,59.99
2018-06-28T22:00:34.461Z,59.55
2018-06-28T22:03:04.825Z,58.93
2018-06-28T22:05:33.469Z,59.88
2018-06-28T22:08:02.210Z,59.86
2018-06-28T22:10:30.124Z,59.90
2018-06-28T22:12:58.419Z,59.58
2018-06-28T22:15:29.502Z,59.69
2018-06-28T22:18:00.627Z,61.12
2018-06-28T22:20:29.772Z,60.58
2018-06-28T22:22:57.813Z,60.29
2018-06-28T22:25:27.091Z,60.10
2018-06-28T22:27:55.199Z,60.79
2018-06-28T22:30:24.050Z,60.99
2018-06-28T22:32:52.080Z,60.94
2018-06-28T22:35:20.135Z,62.21
2018-06-28T22:37:48.619Z,61.44
2018-06-28T22:40:16.920Z,61.09
2018-06-28T22:42:45.082Z,60.94
2018-06-28T22:45:13.251Z,61.64
2018-06-28T22:47:41.443Z,62.18
2018-06-28T22:50:09.780Z,61.98
2018-06-28T22:52:37.998Z,62.12
2018-06-28T22:55:06.267Z,63.49
2018-06-28T22:57:34.456Z,62.96
2018-06-28T23:00:02.562Z,64.64
2018-06-28T23:02:30.587Z,64.79
2018-06-28T23:04:58.615Z,64.99
2018-06-28T23:07:26.762Z,65.55
2018-06-28T23:09:54.695Z,65.64
2018-06-28T23:12:23.014Z,66.04
2018-06-28T23:14:51.074Z,65.95
2018-06-28T23:17:19.246Z,66.13
2018-06-28T23:19:47.361Z,65.91
2018-06-28T23:22:50.929Z,66.01
2018-06-28T23:25:19.100Z,66.87
2018-06-28T23:27:48.152Z,66.52
2018-06-28T23:30:16.784Z,66.02
2018-06-28T23:32:45.025Z,65.34
2018-06-28T23:35:13.229Z,65.44
2018-06-28T23:37:41.636Z,65.09
2018-06-28T23:40:09.961Z,65.31
2018-06-28T23:42:38.995Z,65.62
2018-06-28T23:45:07.854Z,65.84
2018-06-28T23:47:36.229Z,66.24
2018-06-28T23:50:04.798Z,67.11
2018-06-28T23:52:32.962Z,65.93
2018-06-28T23:55:00.997Z,66.34
2018-06-28T23:57:29.074Z,66.59
2018-06-28T23:59:57.114Z,67.57
